Terminal Aerodrome Forecast
Issued by NWS Tuscon, AZ

Home | Current Version | Previous Version | Text Only | Print | Product List | Glossary On
Versions: 1 2 3 4 5 6 7 8 9 10 11 12 13 14
298
FTUS45 KTWC 291943 AAA
TAFDUG
TAF AMD
KDUG 291943Z 2920/3018 22014G22KT P6SM FEW150
     FM300200 21008KT P6SM SKC
     FM300700 09005KT P6SM SKC
     FM301700 20012G18KT P6SM FEW150=

USA.gov is the U.S. government's official web portal to all federal, state and local government web resources and services.